createdAt,value
2022-08-17T00:01:40.907Z,4.80
2022-08-17T00:04:19.186Z,4.22
2022-08-17T00:06:45.910Z,4.40
2022-08-17T00:09:18.686Z,4.68
2022-08-17T00:12:44.420Z,4.20
2022-08-17T00:14:35.938Z,4.05
2022-08-17T00:17:04.507Z,4.32
2022-08-17T00:19:32.598Z,3.65
2022-08-17T00:22:32.001Z,4.00
2022-08-17T00:24:49.599Z,4.30
2022-08-17T00:27:17.057Z,4.00
2022-08-17T00:29:45.397Z,4.22
2022-08-17T00:33:15.279Z,4.10
2022-08-17T00:34:59.471Z,4.40
2022-08-17T00:37:26.038Z,3.75
2022-08-17T00:39:52.486Z,4.00
2022-08-17T00:42:19.488Z,3.80
2022-08-17T00:44:46.189Z,4.05
2022-08-17T00:47:13.266Z,4.15
2022-08-17T00:49:39.812Z,4.00
2022-08-17T00:52:15.446Z,4.70
2022-08-17T00:54:44.706Z,4.47
2022-08-17T00:57:17.659Z,4.05
2022-08-17T00:59:55.956Z,4.38
2022-08-17T01:02:34.400Z,4.47
2022-08-17T01:05:18.937Z,4.30
2022-08-17T01:07:47.728Z,4.40
2022-08-17T01:10:58.227Z,4.47
2022-08-17T01:13:02.633Z,4.63
2022-08-17T01:15:30.500Z,4.50
2022-08-17T01:17:57.127Z,4.90
2022-08-17T01:20:23.763Z,4.47
2022-08-17T01:22:50.330Z,4.30
2022-08-17T01:25:18.618Z,4.20
2022-08-17T01:27:45.005Z,4.70
2022-08-17T01:30:57.214Z,3.95
2022-08-17T01:32:59.906Z,4.38
2022-08-17T01:35:26.566Z,4.32
2022-08-17T01:37:53.139Z,4.20
2022-08-17T01:40:30.392Z,4.40
2022-08-17T01:43:01.615Z,4.25
2022-08-17T01:45:33.698Z,4.72
2022-08-17T01:48:01.198Z,4.63
2022-08-17T01:50:31.154Z,4.47
2022-08-17T01:53:04.176Z,4.68
2022-08-17T01:55:36.824Z,5.03
2022-08-17T01:58:03.275Z,4.20
2022-08-17T02:00:47.257Z,4.40
2022-08-17T02:03:17.127Z,4.18
2022-08-17T02:05:45.456Z,4.45
2022-08-17T02:08:19.821Z,4.22
2022-08-17T02:10:48.737Z,4.25
2022-08-17T02:13:16.000Z,4.10
2022-08-17T02:15:42.623Z,4.68
2022-08-17T02:18:10.519Z,4.65
2022-08-17T02:20:41.598Z,4.50
2022-08-17T02:23:10.555Z,4.53
2022-08-17T02:25:39.569Z,4.63
2022-08-17T02:28:06.026Z,4.45
2022-08-17T02:31:00.789Z,4.72
2022-08-17T02:33:19.918Z,4.80
2022-08-17T02:35:47.039Z,4.82
2022-08-17T02:38:13.433Z,4.72
2022-08-17T02:40:40.761Z,5.00
2022-08-17T02:43:08.738Z,4.80
2022-08-17T02:45:36.347Z,5.38
2022-08-17T02:48:03.607Z,5.30
2022-08-17T02:50:30.269Z,4.45
2022-08-17T02:53:02.228Z,4.28
2022-08-17T02:55:35.267Z,5.22
2022-08-17T02:58:03.800Z,5.63
2022-08-17T03:00:34.408Z,5.03
2022-08-17T03:03:02.389Z,4.43
2022-08-17T03:05:31.202Z,4.93
2022-08-17T03:07:57.830Z,4.87
2022-08-17T03:10:26.168Z,5.20
2022-08-17T03:12:53.711Z,5.53
2022-08-17T03:15:26.386Z,5.10
2022-08-17T03:17:53.726Z,5.37
2022-08-17T03:20:20.901Z,5.30
2022-08-17T03:22:53.448Z,5.03
2022-08-17T03:25:33.011Z,5.87
2022-08-17T03:28:00.994Z,5.50
2022-08-17T03:30:28.423Z,5.50
2022-08-17T03:32:58.268Z,5.27
2022-08-17T03:35:27.362Z,5.37
2022-08-17T03:38:00.029Z,5.72
2022-08-17T03:40:34.392Z,5.37
2022-08-17T03:43:15.278Z,5.20
2022-08-17T03:46:01.380Z,5.23
2022-08-17T03:48:46.621Z,5.40
2022-08-17T03:51:43.024Z,4.87
2022-08-17T03:54:28.681Z,5.47
2022-08-17T03:57:04.588Z,5.60
2022-08-17T03:59:31.539Z,5.37
2022-08-17T04:02:04.294Z,6.10
2022-08-17T04:04:30.737Z,5.77
2022-08-17T04:06:57.812Z,5.10
2022-08-17T04:09:24.321Z,5.23
2022-08-17T04:11:50.674Z,5.60
2022-08-17T04:14:17.024Z,5.57
2022-08-17T04:16:43.591Z,5.60
2022-08-17T04:19:10.504Z,5.27
2022-08-17T04:21:37.145Z,5.17
2022-08-17T04:24:04.699Z,5.13
2022-08-17T04:26:54.054Z,4.73
2022-08-17T04:29:18.789Z,5.03
2022-08-17T04:31:45.935Z,4.30
2022-08-17T04:34:12.674Z,4.70
2022-08-17T04:36:39.089Z,4.43
2022-08-17T04:39:05.599Z,3.67
2022-08-17T04:41:50.740Z,4.30
2022-08-17T04:44:37.125Z,4.80
2022-08-17T04:47:03.715Z,4.50
2022-08-17T04:49:30.338Z,4.00
2022-08-17T04:52:00.110Z,4.00
2022-08-17T04:54:31.013Z,3.80
2022-08-17T04:56:57.417Z,4.40
2022-08-17T04:59:23.814Z,4.25
2022-08-17T05:01:51.782Z,4.15
2022-08-17T05:04:34.474Z,3.65
2022-08-17T05:07:01.897Z,3.60
2022-08-17T05:09:28.960Z,3.70
2022-08-17T05:11:56.383Z,4.38
2022-08-17T05:14:33.087Z,4.15
2022-08-17T05:17:00.999Z,3.92
2022-08-17T05:19:28.542Z,4.05
2022-08-17T05:21:54.943Z,3.78
2022-08-17T05:24:42.908Z,4.40
2022-08-17T05:27:07.729Z,4.40
2022-08-17T05:29:35.449Z,4.50
2022-08-17T05:32:37.216Z,4.75
2022-08-17T05:35:00.365Z,4.15
2022-08-17T05:37:27.122Z,4.13
2022-08-17T05:39:53.918Z,4.40
2022-08-17T05:42:20.519Z,3.40
2022-08-17T05:44:47.091Z,4.37
2022-08-17T05:47:13.627Z,5.38
2022-08-17T05:49:40.284Z,6.13
2022-08-17T05:52:14.663Z,5.83
2022-08-17T05:54:52.296Z,5.90
2022-08-17T05:57:36.516Z,6.25
2022-08-17T06:00:15.668Z,4.93
2022-08-17T06:03:03.984Z,4.67
2022-08-17T06:05:50.493Z,4.57
2022-08-17T06:08:19.520Z,4.32
2022-08-17T06:11:16.552Z,4.22
2022-08-17T06:13:55.537Z,3.83
2022-08-17T06:16:34.391Z,3.60
2022-08-17T06:19:39.724Z,3.60
2022-08-17T06:22:11.717Z,3.40
2022-08-17T06:24:46.391Z,3.30
2022-08-17T06:27:22.760Z,4.00
2022-08-17T06:29:59.785Z,3.20
2022-08-17T06:32:26.716Z,3.60
2022-08-17T06:34:53.768Z,3.47
2022-08-17T06:37:56.129Z,3.80
2022-08-17T06:40:28.305Z,3.75
2022-08-17T06:43:23.238Z,4.00
2022-08-17T06:46:21.615Z,3.95
2022-08-17T06:49:11.559Z,3.78
2022-08-17T06:51:50.633Z,3.30
2022-08-17T06:54:33.758Z,3.17
2022-08-17T06:57:19.644Z,3.67
2022-08-17T06:59:56.418Z,3.42
2022-08-17T07:03:02.095Z,3.53
2022-08-17T07:05:42.105Z,3.47
2022-08-17T07:08:35.217Z,3.28
2022-08-17T07:11:15.457Z,3.20
2022-08-17T07:13:57.446Z,3.47
2022-08-17T07:16:46.651Z,3.30
2022-08-17T07:19:16.812Z,3.60
2022-08-17T07:22:14.017Z,3.20
2022-08-17T07:24:52.402Z,3.67
2022-08-17T07:27:31.186Z,3.47
2022-08-17T07:30:10.230Z,3.85
2022-08-17T07:33:09.012Z,3.30
2022-08-17T07:35:44.167Z,3.78
2022-08-17T07:38:24.763Z,3.17
2022-08-17T07:41:02.218Z,3.92
2022-08-17T07:43:48.471Z,5.63
2022-08-17T07:46:51.476Z,3.20
2022-08-17T07:49:31.783Z,4.60
2022-08-17T07:52:47.468Z,5.38
2022-08-17T07:54:48.385Z,4.15
2022-08-17T07:57:14.821Z,4.22
2022-08-17T07:59:43.652Z,4.90
2022-08-17T08:02:38.261Z,4.22
2022-08-17T08:05:10.024Z,4.82
2022-08-17T08:07:50.996Z,4.80
2022-08-17T08:10:35.451Z,6.32
2022-08-17T08:13:23.259Z,6.22
2022-08-17T08:15:54.787Z,6.35
2022-08-17T08:18:38.701Z,6.43
2022-08-17T08:21:15.389Z,5.70
2022-08-17T08:24:20.607Z,6.38
2022-08-17T08:27:12.715Z,5.95
2022-08-17T08:29:57.653Z,6.28
2022-08-17T08:32:26.725Z,6.28
2022-08-17T08:35:11.360Z,6.68
2022-08-17T08:37:55.673Z,6.45
2022-08-17T08:40:45.790Z,7.15
2022-08-17T08:43:22.287Z,7.05
2022-08-17T08:45:57.750Z,7.47
2022-08-17T08:48:53.305Z,7.43
2022-08-17T08:51:55.583Z,6.70
2022-08-17T08:54:31.533Z,6.88
2022-08-17T08:57:29.208Z,6.68
2022-08-17T09:00:04.849Z,6.10
2022-08-17T09:02:51.616Z,6.78
2022-08-17T09:05:49.968Z,6.30
2022-08-17T09:08:32.354Z,7.07
2022-08-17T09:11:24.803Z,7.07
2022-08-17T09:14:21.204Z,7.90
2022-08-17T09:17:14.153Z,8.50
2022-08-17T09:19:50.225Z,8.57
2022-08-17T09:22:32.409Z,8.50
2022-08-17T09:25:06.849Z,8.43
2022-08-17T09:27:41.549Z,8.68
2022-08-17T09:30:10.930Z,9.00
2022-08-17T09:32:43.927Z,9.98
2022-08-17T09:35:36.597Z,8.75
2022-08-17T09:38:09.844Z,8.55
2022-08-17T09:41:10.679Z,12.82
2022-08-17T09:44:22.680Z,9.02
2022-08-17T09:46:59.674Z,8.40
2022-08-17T09:49:55.487Z,10.25
2022-08-17T09:52:25.890Z,9.00
2022-08-17T09:54:55.633Z,8.80
2022-08-17T09:57:39.125Z,8.25
2022-08-17T10:00:13.517Z,9.52
2022-08-17T10:03:01.483Z,8.80
2022-08-17T10:05:37.575Z,9.60
2022-08-17T10:08:32.044Z,8.63
2022-08-17T10:11:07.337Z,9.18
2022-08-17T10:13:53.006Z,8.93
2022-08-17T10:16:38.723Z,9.13
2022-08-17T10:19:15.697Z,9.82
2022-08-17T10:22:32.720Z,9.48
2022-08-17T10:25:22.366Z,9.77
2022-08-17T10:28:05.038Z,9.48
2022-08-17T10:30:36.893Z,9.60
2022-08-17T10:33:13.889Z,9.48
2022-08-17T10:35:46.195Z,9.90
2022-08-17T10:38:46.134Z,9.48
2022-08-17T10:41:27.065Z,9.77
2022-08-17T10:44:37.050Z,9.85
2022-08-17T10:47:15.643Z,9.75
2022-08-17T10:49:54.278Z,9.90
2022-08-17T10:52:21.701Z,9.25
2022-08-17T10:54:49.275Z,9.05
2022-08-17T10:57:33.741Z,9.80
2022-08-17T11:00:08.367Z,10.02
2022-08-17T11:02:45.710Z,9.43
2022-08-17T11:05:30.604Z,9.95
2022-08-17T11:08:19.013Z,11.15
2022-08-17T11:10:55.045Z,11.82
2022-08-17T11:13:48.551Z,10.93
2022-08-17T11:16:28.328Z,11.10
2022-08-17T11:19:18.678Z,10.77
2022-08-17T11:22:03.642Z,11.60
2022-08-17T11:24:43.404Z,12.35
2022-08-17T11:27:21.776Z,11.77
2022-08-17T11:30:01.273Z,12.57
2022-08-17T11:32:53.052Z,10.90
2022-08-17T11:35:21.418Z,12.63
2022-08-17T11:37:59.371Z,11.80
2022-08-17T11:40:44.380Z,11.57
2022-08-17T11:43:25.678Z,11.32
2022-08-17T11:46:02.227Z,12.07
2022-08-17T11:49:33.830Z,11.05
2022-08-17T11:52:00.373Z,10.85
2022-08-17T11:54:33.363Z,12.48
2022-08-17T11:57:26.583Z,11.20
2022-08-17T11:59:54.349Z,10.35
2022-08-17T12:02:38.739Z,10.98
2022-08-17T12:05:12.319Z,11.07
2022-08-17T12:07:55.741Z,10.63
2022-08-17T12:10:31.734Z,11.45
2022-08-17T12:13:14.404Z,9.85
2022-08-17T12:15:49.590Z,9.63
2022-08-17T12:18:28.554Z,10.35
2022-08-17T12:21:24.232Z,10.25
2022-08-17T12:24:26.050Z,9.85
2022-08-17T12:26:55.842Z,10.57
2022-08-17T12:29:35.676Z,11.65
2022-08-17T12:32:07.051Z,12.60
2022-08-17T12:34:40.806Z,11.95
2022-08-17T12:37:16.096Z,10.90
2022-08-17T12:40:02.362Z,12.52
2022-08-17T12:42:31.748Z,11.88
2022-08-17T12:44:58.590Z,11.73
2022-08-17T12:47:26.258Z,10.85
2022-08-17T12:50:08.283Z,12.55
2022-08-17T12:52:59.656Z,11.52
2022-08-17T12:55:35.704Z,12.32
2022-08-17T12:58:02.467Z,12.50
2022-08-17T13:00:35.266Z,12.80
2022-08-17T13:03:09.501Z,13.80
2022-08-17T13:06:00.817Z,12.05
2022-08-17T13:08:33.035Z,13.10
2022-08-17T13:11:19.513Z,11.75
2022-08-17T13:13:51.454Z,11.50
2022-08-17T13:16:25.434Z,11.27
2022-08-17T13:18:54.970Z,11.45
2022-08-17T13:21:26.792Z,11.30
2022-08-17T13:23:55.823Z,10.65
2022-08-17T13:26:37.033Z,12.55
2022-08-17T13:29:16.675Z,11.73
2022-08-17T13:31:52.206Z,11.02
2022-08-17T13:34:26.710Z,11.30
2022-08-17T13:37:32.686Z,12.15
2022-08-17T13:40:04.194Z,11.60
2022-08-17T13:42:52.072Z,11.25
2022-08-17T13:45:36.140Z,10.80
2022-08-17T13:48:22.256Z,11.57
2022-08-17T13:50:49.203Z,10.20
2022-08-17T13:53:32.851Z,10.10
2022-08-17T13:56:37.192Z,10.75
2022-08-17T13:59:07.831Z,10.52
2022-08-17T14:01:44.040Z,10.25
2022-08-17T14:04:19.539Z,8.98
2022-08-17T14:06:53.972Z,10.32
2022-08-17T14:09:25.379Z,9.73
2022-08-17T14:11:54.420Z,9.77
2022-08-17T14:14:23.010Z,10.93
2022-08-17T14:16:50.813Z,10.38
2022-08-17T14:19:17.602Z,10.02
2022-08-17T14:21:46.533Z,9.50
2022-08-17T14:24:35.157Z,9.88
2022-08-17T14:27:04.175Z,8.60
2022-08-17T14:29:32.471Z,8.70
2022-08-17T14:32:04.276Z,8.07
2022-08-17T14:34:30.669Z,9.88
2022-08-17T14:36:57.096Z,9.57
2022-08-17T14:39:23.582Z,9.05
2022-08-17T14:41:50.554Z,9.07
2022-08-17T14:44:17.019Z,8.63
2022-08-17T14:46:44.853Z,10.18
2022-08-17T14:49:12.964Z,7.93
2022-08-17T14:51:44.087Z,9.20
2022-08-17T14:54:32.777Z,9.77
2022-08-17T14:57:16.146Z,10.57
2022-08-17T14:59:47.130Z,9.90
2022-08-17T15:02:13.625Z,9.90
2022-08-17T15:04:45.337Z,9.20
2022-08-17T15:07:12.137Z,10.55
2022-08-17T15:09:39.061Z,9.55
2022-08-17T15:12:08.859Z,10.90
2022-08-17T15:14:36.038Z,11.23
2022-08-17T15:17:03.671Z,9.85
2022-08-17T15:19:30.152Z,10.32
2022-08-17T15:21:56.784Z,10.77
2022-08-17T15:24:23.314Z,9.57
2022-08-17T15:26:49.867Z,10.07
2022-08-17T15:29:16.313Z,11.55
2022-08-17T15:31:43.333Z,10.68
2022-08-17T15:34:09.719Z,12.05
2022-08-17T15:36:36.347Z,11.07
2022-08-17T15:39:03.113Z,11.20
2022-08-17T15:41:29.791Z,11.55
2022-08-17T15:43:56.523Z,12.32
2022-08-17T15:46:25.601Z,12.00
2022-08-17T15:48:55.630Z,11.35
2022-08-17T15:51:26.632Z,12.18
2022-08-17T15:53:59.026Z,12.05
2022-08-17T15:56:26.225Z,10.32
2022-08-17T15:58:55.035Z,13.38
2022-08-17T16:02:17.118Z,11.43
2022-08-17T16:04:26.845Z,11.98
2022-08-17T16:06:57.767Z,11.23
2022-08-17T16:09:24.248Z,10.98
2022-08-17T16:11:53.713Z,9.82
2022-08-17T16:14:22.408Z,9.27
2022-08-17T16:16:50.514Z,10.27
2022-08-17T16:19:17.012Z,11.15
2022-08-17T16:21:43.549Z,9.73
2022-08-17T16:24:13.728Z,11.68
2022-08-17T16:26:41.971Z,9.77
2022-08-17T16:29:09.348Z,9.60
2022-08-17T16:31:37.638Z,10.05
2022-08-17T16:34:16.934Z,9.80
2022-08-17T16:36:53.752Z,10.32
2022-08-17T16:39:24.675Z,10.55
2022-08-17T16:41:51.113Z,14.15
2022-08-17T16:44:19.761Z,11.27
2022-08-17T16:46:48.238Z,12.27
2022-08-17T16:49:35.992Z,12.02
2022-08-17T16:52:03.261Z,11.55
2022-08-17T16:54:29.767Z,11.07
2022-08-17T16:56:56.257Z,10.35
2022-08-17T16:59:30.369Z,10.75
2022-08-17T17:02:04.803Z,9.48
2022-08-17T17:04:35.149Z,9.88
2022-08-17T17:07:51.096Z,9.98
2022-08-17T17:10:22.504Z,9.43
2022-08-17T17:13:01.377Z,9.80
2022-08-17T17:15:43.496Z,9.80
2022-08-17T17:18:13.723Z,8.98
2022-08-17T17:20:51.077Z,9.18
2022-08-17T17:24:08.720Z,9.85
2022-08-17T17:27:07.308Z,9.45
2022-08-17T17:29:52.787Z,9.52
2022-08-17T17:32:38.929Z,9.45
2022-08-17T17:35:10.763Z,9.43
2022-08-17T17:37:39.840Z,9.15
2022-08-17T17:40:21.904Z,9.50
2022-08-17T17:42:53.461Z,9.50
2022-08-17T17:45:26.385Z,9.68
2022-08-17T17:47:53.260Z,8.48
2022-08-17T17:50:25.056Z,8.18
2022-08-17T17:53:04.123Z,7.32
2022-08-17T17:55:36.440Z,7.07
2022-08-17T17:58:19.628Z,8.52
2022-08-17T18:01:23.894Z,8.98
2022-08-17T18:04:17.703Z,8.38
2022-08-17T18:07:05.552Z,7.95
2022-08-17T18:09:42.118Z,8.60
2022-08-17T18:12:22.683Z,8.15
2022-08-17T18:14:58.326Z,8.00
2022-08-17T18:17:24.786Z,7.93
2022-08-17T18:19:55.319Z,7.13
2022-08-17T18:22:23.272Z,7.70
2022-08-17T18:24:55.872Z,7.00
2022-08-17T18:27:39.138Z,7.65
2022-08-17T18:30:14.764Z,6.80
2022-08-17T18:32:43.658Z,7.63
2022-08-17T18:35:10.149Z,7.32
2022-08-17T18:37:51.371Z,7.50
2022-08-17T18:40:20.676Z,7.40
2022-08-17T18:42:50.154Z,7.70
2022-08-17T18:45:33.626Z,7.28
2022-08-17T18:48:00.070Z,7.97
2022-08-17T18:50:39.457Z,8.45
2022-08-17T18:53:30.224Z,7.68
2022-08-17T18:56:17.355Z,7.55
2022-08-17T18:58:52.219Z,7.85
2022-08-17T19:01:21.130Z,7.82
2022-08-17T19:03:49.388Z,7.70
2022-08-17T19:06:30.214Z,7.93
2022-08-17T19:08:57.017Z,7.80
2022-08-17T19:11:30.315Z,7.00
2022-08-17T19:14:10.443Z,7.80
2022-08-17T19:16:55.527Z,7.53
2022-08-17T19:19:37.992Z,7.50
2022-08-17T19:22:28.687Z,7.30
2022-08-17T19:25:11.412Z,7.30
2022-08-17T19:27:50.634Z,7.57
2022-08-17T19:30:24.315Z,6.75
2022-08-17T19:32:50.972Z,7.70
2022-08-17T19:35:20.210Z,6.85
2022-08-17T19:38:05.100Z,7.60
2022-08-17T19:41:03.305Z,7.68
2022-08-17T19:43:48.133Z,7.30
2022-08-17T19:46:35.593Z,7.15
2022-08-17T19:49:21.398Z,7.55
2022-08-17T19:52:29.703Z,7.85
2022-08-17T19:55:04.690Z,7.63
2022-08-17T19:57:49.039Z,7.78
2022-08-17T20:00:17.621Z,7.70
2022-08-17T20:02:55.397Z,8.10
2022-08-17T20:05:27.994Z,8.30
2022-08-17T20:08:01.872Z,8.32
2022-08-17T20:10:38.231Z,8.10
2022-08-17T20:13:13.778Z,8.52
2022-08-17T20:15:43.026Z,8.48
2022-08-17T20:18:24.017Z,7.82
2022-08-17T20:21:01.390Z,8.20
2022-08-17T20:23:43.782Z,8.00
2022-08-17T20:26:27.662Z,7.88
2022-08-17T20:29:15.086Z,9.07
2022-08-17T20:31:56.786Z,8.38
2022-08-17T20:34:31.008Z,7.85
2022-08-17T20:37:07.735Z,8.32
2022-08-17T20:40:05.982Z,8.38
2022-08-17T20:42:33.830Z,8.45
2022-08-17T20:45:21.591Z,8.73
2022-08-17T20:48:18.595Z,8.88
2022-08-17T20:50:45.328Z,9.23
2022-08-17T20:53:32.633Z,8.63
2022-08-17T20:55:59.297Z,9.07
2022-08-17T20:58:29.970Z,9.18
2022-08-17T21:00:57.490Z,9.65
2022-08-17T21:03:24.187Z,8.98
2022-08-17T21:05:59.889Z,8.82
2022-08-17T21:08:27.659Z,9.07
2022-08-17T21:10:54.571Z,8.38
2022-08-17T21:13:40.806Z,7.93
2022-08-17T21:16:35.078Z,7.93
2022-08-17T21:19:08.668Z,8.15
2022-08-17T21:22:12.716Z,8.95
2022-08-17T21:25:04.256Z,8.15
2022-08-17T21:27:37.035Z,9.20
2022-08-17T21:30:10.044Z,8.45
2022-08-17T21:32:40.488Z,8.25
2022-08-17T21:35:11.525Z,9.00
2022-08-17T21:37:44.279Z,8.98
2022-08-17T21:40:10.816Z,9.45
2022-08-17T21:43:23.366Z,9.73
2022-08-17T21:46:20.927Z,9.50
2022-08-17T21:48:49.273Z,9.75
2022-08-17T21:51:25.716Z,9.60
2022-08-17T21:53:57.418Z,8.90
2022-08-17T21:56:33.864Z,9.52
2022-08-17T21:59:06.651Z,8.93
2022-08-17T22:01:39.916Z,10.40
2022-08-17T22:04:20.868Z,9.90
2022-08-17T22:06:56.831Z,10.13
2022-08-17T22:09:31.587Z,9.82
2022-08-17T22:12:21.088Z,10.02
2022-08-17T22:15:06.194Z,9.23
2022-08-17T22:17:36.417Z,9.52
2022-08-17T22:20:14.211Z,8.85
2022-08-17T22:23:08.383Z,10.20
2022-08-17T22:25:55.986Z,9.65
2022-08-17T22:28:50.262Z,9.93
2022-08-17T22:31:19.277Z,10.40
2022-08-17T22:33:51.348Z,10.77
2022-08-17T22:36:29.237Z,11.05
2022-08-17T22:38:58.861Z,10.93
2022-08-17T22:41:41.260Z,10.47
2022-08-17T22:44:37.502Z,11.47
2022-08-17T22:47:31.976Z,9.97
2022-08-17T22:50:01.796Z,10.88
2022-08-17T22:52:32.380Z,10.63
2022-08-17T22:55:30.224Z,11.30
2022-08-17T22:58:16.116Z,11.00
2022-08-17T23:00:46.173Z,11.75
2022-08-17T23:03:22.169Z,10.43
2022-08-17T23:06:05.273Z,11.07
2022-08-17T23:08:34.918Z,10.52
2022-08-17T23:11:01.431Z,11.95
2022-08-17T23:13:28.476Z,11.47
2022-08-17T23:15:55.047Z,11.38
2022-08-17T23:18:23.341Z,12.15
2022-08-17T23:20:49.911Z,11.82
2022-08-17T23:23:23.417Z,11.48
2022-08-17T23:25:50.433Z,11.90
2022-08-17T23:28:16.899Z,11.13
2022-08-17T23:30:44.651Z,11.70
2022-08-17T23:33:21.233Z,10.97
2022-08-17T23:35:47.770Z,11.50
2022-08-17T23:38:14.481Z,12.13
2022-08-17T23:40:40.978Z,12.23
2022-08-17T23:43:17.551Z,11.40
2022-08-17T23:45:52.917Z,10.60
2022-08-17T23:48:35.192Z,11.33
2022-08-17T23:51:05.889Z,11.37
2022-08-17T23:53:34.485Z,11.40
2022-08-17T23:56:09.423Z,12.50
2022-08-17T23:58:38.389Z,12.43
